createdAt,value
2017-09-14T00:02:05.740Z,95.80
2017-09-14T00:04:33.916Z,95.70
2017-09-14T00:07:02.038Z,95.60
2017-09-14T00:09:30.164Z,95.40
2017-09-14T00:11:58.718Z,95.80
2017-09-14T00:14:26.956Z,95.50
2017-09-14T00:16:55.089Z,95.50
2017-09-14T00:19:23.184Z,95.00
2017-09-14T00:21:51.304Z,95.00
2017-09-14T00:24:20.537Z,95.10
2017-09-14T00:26:48.637Z,95.10
2017-09-14T00:29:17.127Z,95.10
2017-09-14T00:31:46.900Z,94.60
2017-09-14T00:34:16.738Z,94.40
2017-09-14T00:36:45.717Z,94.30
2017-09-14T00:39:13.925Z,94.20
2017-09-14T00:41:42.017Z,93.90
2017-09-14T00:44:10.159Z,93.80
2017-09-14T00:46:39.064Z,94.80
2017-09-14T00:49:07.153Z,94.80
2017-09-14T00:51:35.280Z,94.40
2017-09-14T00:54:04.177Z,94.60
2017-09-14T00:56:33.040Z,94.40
2017-09-14T00:59:01.177Z,94.40
2017-09-14T01:01:30.375Z,94.80
2017-09-14T01:03:59.414Z,95.00
2017-09-14T01:06:27.537Z,94.90
2017-09-14T01:08:55.657Z,95.00
2017-09-14T01:11:23.772Z,94.50
2017-09-14T01:13:52.840Z,94.40
2017-09-14T01:16:22.296Z,95.40
2017-09-14T01:18:50.389Z,95.00
2017-09-14T01:21:18.535Z,94.00
2017-09-14T01:23:46.641Z,94.80
2017-09-14T01:26:14.829Z,94.70
2017-09-14T01:28:42.955Z,94.60
2017-09-14T01:31:11.092Z,94.50
2017-09-14T01:33:40.169Z,94.90
2017-09-14T01:36:08.580Z,94.80
2017-09-14T01:38:40.344Z,95.20
2017-09-14T01:41:08.871Z,95.10
2017-09-14T01:43:36.998Z,95.20
2017-09-14T01:46:05.136Z,94.90
2017-09-14T01:48:33.244Z,94.80
2017-09-14T01:51:01.660Z,94.60
2017-09-14T01:53:30.092Z,94.30
2017-09-14T01:55:58.955Z,94.90
2017-09-14T01:58:28.227Z,94.80
2017-09-14T02:00:56.339Z,94.60
2017-09-14T02:03:24.688Z,94.70
2017-09-14T02:05:52.961Z,94.80
2017-09-14T02:08:22.643Z,94.40
2017-09-14T02:10:50.731Z,94.40
2017-09-14T02:13:18.896Z,94.00
2017-09-14T02:15:47.028Z,94.40
2017-09-14T02:18:17.118Z,94.60
2017-09-14T02:20:45.640Z,94.40
2017-09-14T02:23:13.755Z,94.30
2017-09-14T02:25:42.328Z,94.70
2017-09-14T02:28:10.444Z,94.60
2017-09-14T02:30:38.581Z,94.70
2017-09-14T02:33:06.716Z,94.50
2017-09-14T02:35:34.842Z,94.20
2017-09-14T02:38:02.947Z,94.60
2017-09-14T02:40:31.046Z,94.10
2017-09-14T02:42:59.539Z,94.20
2017-09-14T02:45:27.667Z,94.40
2017-09-14T02:47:58.455Z,94.30
2017-09-14T02:50:26.584Z,94.60
2017-09-14T02:52:54.711Z,94.40
2017-09-14T02:55:22.817Z,94.60
2017-09-14T02:57:52.503Z,94.60
2017-09-14T03:00:20.609Z,94.80
2017-09-14T03:02:49.486Z,94.90
2017-09-14T03:05:17.622Z,94.90
2017-09-14T03:07:45.759Z,94.70
2017-09-14T03:10:13.973Z,94.90
2017-09-14T03:12:43.045Z,94.70
2017-09-14T03:15:11.170Z,94.20
2017-09-14T03:17:41.384Z,94.60
2017-09-14T03:20:12.731Z,94.50
2017-09-14T03:22:44.328Z,94.40
2017-09-14T03:25:13.452Z,95.00
2017-09-14T03:27:41.783Z,95.00
2017-09-14T03:30:10.049Z,94.70
2017-09-14T03:32:38.157Z,94.80
2017-09-14T03:35:06.384Z,95.20
2017-09-14T03:37:35.499Z,95.40
2017-09-14T03:40:03.592Z,95.50
2017-09-14T03:42:32.546Z,95.20
2017-09-14T03:45:00.837Z,95.20
2017-09-14T03:47:29.235Z,95.30
2017-09-14T03:49:57.401Z,95.50
2017-09-14T03:52:25.801Z,95.50
2017-09-14T03:54:54.831Z,95.60
2017-09-14T03:57:23.032Z,95.40
2017-09-14T03:59:51.132Z,95.20
2017-09-14T04:02:19.785Z,95.40
2017-09-14T04:04:47.872Z,95.40
2017-09-14T04:07:16.570Z,95.30
2017-09-14T04:09:45.434Z,95.30
2017-09-14T04:12:14.028Z,95.30
2017-09-14T04:14:42.200Z,95.20
2017-09-14T04:17:10.285Z,94.90
2017-09-14T04:19:38.409Z,94.70
2017-09-14T04:22:06.515Z,93.80
2017-09-14T04:24:36.543Z,93.90
2017-09-14T04:27:04.652Z,94.20
2017-09-14T04:29:32.755Z,94.10
2017-09-14T04:32:01.105Z,94.30
2017-09-14T04:34:30.008Z,95.00
2017-09-14T04:36:58.122Z,94.90
2017-09-14T04:39:26.301Z,94.60
2017-09-14T04:41:54.435Z,94.90
2017-09-14T04:44:29.172Z,94.40
2017-09-14T04:46:57.270Z,94.20
2017-09-14T04:49:27.359Z,94.40
2017-09-14T04:51:55.495Z,94.50
2017-09-14T04:54:24.523Z,94.30
2017-09-14T04:56:52.637Z,94.30
2017-09-14T04:59:20.761Z,94.50
2017-09-14T05:01:49.088Z,94.80
2017-09-14T05:04:17.223Z,95.20
2017-09-14T05:06:45.313Z,94.50
2017-09-14T05:09:13.459Z,95.00
2017-09-14T05:11:41.571Z,95.20
2017-09-14T05:14:09.692Z,95.40
2017-09-14T05:16:37.796Z,95.50
2017-09-14T05:19:05.871Z,95.40
2017-09-14T05:21:33.975Z,95.50
2017-09-14T05:24:02.879Z,95.90
2017-09-14T05:26:32.220Z,95.80
2017-09-14T05:29:00.312Z,95.80
2017-09-14T05:31:28.452Z,95.90
2017-09-14T05:33:56.540Z,95.70
2017-09-14T05:36:24.680Z,95.80
2017-09-14T05:38:53.259Z,95.90
2017-09-14T05:41:22.127Z,95.60
2017-09-14T05:43:50.220Z,95.60
2017-09-14T05:46:18.327Z,95.10
2017-09-14T05:48:46.439Z,95.10
2017-09-14T05:51:15.484Z,95.50
2017-09-14T05:53:43.657Z,95.50
2017-09-14T05:56:11.753Z,95.20
2017-09-14T05:58:39.855Z,95.30
2017-09-14T06:01:07.967Z,95.30
2017-09-14T06:03:36.280Z,95.00
2017-09-14T06:06:04.407Z,94.80
2017-09-14T06:08:35.367Z,95.00
2017-09-14T06:11:03.469Z,95.20
2017-09-14T06:13:31.555Z,95.30
2017-09-14T06:15:59.671Z,95.10
2017-09-14T06:18:27.769Z,95.20
2017-09-14T06:20:55.865Z,95.20
2017-09-14T06:23:23.979Z,95.40
2017-09-14T06:25:52.879Z,95.20
2017-09-14T06:28:21.003Z,95.20
2017-09-14T06:30:50.265Z,94.80
2017-09-14T06:33:18.415Z,95.30
2017-09-14T06:35:50.753Z,95.40
2017-09-14T06:38:18.868Z,95.40
2017-09-14T06:40:46.966Z,95.30
2017-09-14T06:43:15.096Z,95.60
2017-09-14T06:45:44.247Z,95.60
2017-09-14T06:48:13.396Z,95.20
2017-09-14T06:50:44.320Z,95.50
2017-09-14T06:53:12.404Z,95.50
2017-09-14T06:55:41.296Z,95.40
2017-09-14T06:58:09.395Z,95.40
2017-09-14T07:00:37.499Z,94.50
2017-09-14T07:03:05.628Z,92.90
2017-09-14T07:05:33.748Z,93.40
2017-09-14T07:08:01.847Z,93.00
2017-09-14T07:10:30.752Z,93.10
2017-09-14T07:12:59.659Z,92.60
2017-09-14T07:15:27.766Z,92.50
2017-09-14T07:17:59.295Z,92.20
2017-09-14T07:20:27.415Z,92.00
2017-09-14T07:22:55.511Z,91.10
2017-09-14T07:25:23.639Z,91.60
2017-09-14T07:27:52.251Z,91.70
2017-09-14T07:30:20.375Z,92.20
2017-09-14T07:32:48.473Z,90.70
2017-09-14T07:35:16.639Z,91.30
2017-09-14T07:37:45.068Z,92.00
2017-09-14T07:40:13.958Z,91.30
2017-09-14T07:42:42.031Z,91.30
2017-09-14T07:45:10.136Z,91.40
2017-09-14T07:47:38.253Z,91.90
2017-09-14T07:50:06.448Z,91.90
2017-09-14T07:52:34.567Z,92.20
2017-09-14T07:55:02.687Z,92.30
2017-09-14T07:57:30.850Z,91.50
2017-09-14T07:59:58.973Z,91.50
2017-09-14T08:02:27.053Z,91.40
2017-09-14T08:04:55.161Z,92.10
2017-09-14T08:07:23.289Z,91.80
2017-09-14T08:09:51.390Z,90.70
2017-09-14T08:12:20.572Z,91.20
2017-09-14T08:14:50.394Z,91.40
2017-09-14T08:17:19.790Z,91.10
2017-09-14T08:19:49.595Z,91.10
2017-09-14T08:22:17.899Z,90.30
2017-09-14T08:24:46.003Z,91.10
2017-09-14T08:27:14.097Z,90.50
2017-09-14T08:29:42.211Z,90.80
2017-09-14T08:32:10.301Z,90.00
2017-09-14T08:34:38.384Z,90.70
2017-09-14T08:37:07.248Z,90.40
2017-09-14T08:39:35.328Z,90.10
2017-09-14T08:42:04.363Z,89.00
2017-09-14T08:44:32.565Z,87.60
2017-09-14T08:47:00.676Z,87.80
2017-09-14T08:49:28.772Z,87.40
2017-09-14T08:51:57.665Z,87.80
2017-09-14T08:54:26.520Z,86.70
2017-09-14T08:56:54.684Z,86.70
2017-09-14T08:59:22.772Z,86.30
2017-09-14T09:01:50.858Z,86.50
2017-09-14T09:04:18.951Z,85.60
2017-09-14T09:06:48.228Z,84.90
2017-09-14T09:09:16.348Z,84.30
2017-09-14T09:11:44.444Z,84.50
2017-09-14T09:14:12.576Z,82.50
2017-09-14T09:16:40.686Z,82.90
2017-09-14T09:19:08.784Z,83.90
2017-09-14T09:21:36.879Z,85.10
2017-09-14T09:24:06.440Z,82.90
2017-09-14T09:26:34.588Z,83.20
2017-09-14T09:29:02.662Z,82.10
2017-09-14T09:31:30.784Z,84.10
2017-09-14T09:33:58.882Z,84.10
2017-09-14T09:36:26.979Z,83.20
2017-09-14T09:38:55.070Z,82.50
2017-09-14T09:41:23.183Z,83.00
2017-09-14T09:43:51.267Z,83.90
2017-09-14T09:46:20.109Z,82.50
2017-09-14T09:48:48.212Z,82.40
2017-09-14T09:51:17.797Z,82.80
2017-09-14T09:53:46.116Z,83.30
2017-09-14T09:56:14.972Z,83.80
2017-09-14T09:58:43.073Z,83.70
2017-09-14T10:01:11.925Z,81.60
2017-09-14T10:03:40.043Z,81.50
2017-09-14T10:06:08.185Z,82.60
2017-09-14T10:08:36.291Z,80.90
2017-09-14T10:11:04.399Z,80.60
2017-09-14T10:13:32.485Z,81.70
2017-09-14T10:16:00.606Z,80.00
2017-09-14T10:18:29.455Z,79.70
2017-09-14T10:20:57.547Z,79.70
2017-09-14T10:23:25.688Z,81.00
2017-09-14T10:25:53.797Z,81.50
2017-09-14T10:28:21.899Z,82.40
2017-09-14T10:30:49.967Z,81.30
2017-09-14T10:33:18.044Z,81.50
2017-09-14T10:35:46.163Z,81.60
2017-09-14T10:38:15.887Z,81.80
2017-09-14T10:40:43.999Z,78.90
2017-09-14T10:43:12.091Z,76.20
2017-09-14T10:45:40.196Z,71.70
2017-09-14T10:48:08.259Z,71.50
2017-09-14T10:50:36.748Z,70.90
2017-09-14T10:53:04.905Z,72.40
2017-09-14T10:55:33.680Z,74.70
2017-09-14T10:58:01.783Z,73.90
2017-09-14T11:00:30.181Z,76.90
2017-09-14T11:02:58.302Z,76.50
2017-09-14T11:05:26.409Z,78.00
2017-09-14T11:07:54.552Z,78.00
2017-09-14T11:10:22.663Z,76.80
2017-09-14T11:12:50.735Z,76.50
2017-09-14T11:15:18.839Z,76.50
2017-09-14T11:17:49.110Z,74.00
2017-09-14T11:20:17.215Z,74.00
2017-09-14T11:22:45.324Z,75.70
2017-09-14T11:25:13.396Z,73.30
2017-09-14T11:27:41.596Z,72.20
2017-09-14T11:30:09.690Z,74.50
2017-09-14T11:32:37.767Z,71.20
2017-09-14T11:35:05.880Z,71.50
2017-09-14T11:37:33.979Z,73.60
2017-09-14T11:40:02.072Z,73.30
2017-09-14T11:42:30.200Z,74.70
2017-09-14T11:44:58.331Z,75.20
2017-09-14T11:47:26.807Z,74.20
2017-09-14T11:49:54.891Z,75.20
2017-09-14T11:52:23.788Z,80.40
2017-09-14T11:54:51.924Z,80.10
2017-09-14T11:57:20.008Z,79.50
2017-09-14T11:59:48.290Z,79.80
2017-09-14T12:02:16.624Z,80.10
2017-09-14T12:04:45.645Z,82.10
2017-09-14T12:07:14.253Z,80.30
2017-09-14T12:09:42.368Z,80.90
2017-09-14T12:12:10.467Z,81.00
2017-09-14T12:14:38.565Z,87.50
2017-09-14T12:17:06.696Z,88.30
2017-09-14T12:19:34.844Z,90.80
2017-09-14T12:22:02.956Z,91.00
2017-09-14T12:24:32.341Z,91.70
2017-09-14T12:27:00.453Z,90.20
2017-09-14T12:29:29.347Z,91.40
2017-09-14T12:31:57.503Z,91.40
2017-09-14T12:34:25.599Z,91.10
2017-09-14T12:36:53.735Z,90.90
2017-09-14T12:39:21.895Z,91.30
2017-09-14T12:41:50.041Z,91.30
2017-09-14T12:44:18.119Z,91.30
2017-09-14T12:46:46.316Z,91.80
2017-09-14T12:49:14.431Z,91.50
2017-09-14T12:51:42.544Z,89.40
2017-09-14T12:54:10.673Z,90.50
2017-09-14T12:56:38.795Z,90.00
2017-09-14T12:59:06.925Z,89.00
2017-09-14T13:01:35.021Z,90.00
2017-09-14T13:04:03.162Z,85.90
2017-09-14T13:06:31.255Z,88.60
2017-09-14T13:09:00.166Z,86.40
2017-09-14T13:11:28.271Z,86.00
2017-09-14T13:13:56.341Z,86.90
2017-09-14T13:16:24.447Z,87.30
2017-09-14T13:18:55.625Z,89.20
2017-09-14T13:21:24.486Z,89.30
2017-09-14T13:23:52.571Z,89.30
2017-09-14T13:26:22.695Z,86.90
2017-09-14T13:28:51.572Z,83.90
2017-09-14T13:31:19.677Z,83.90
2017-09-14T13:33:48.540Z,81.90
2017-09-14T13:36:17.029Z,81.80
2017-09-14T13:38:45.909Z,81.30
2017-09-14T13:41:15.033Z,81.30
2017-09-14T13:43:43.133Z,81.50
2017-09-14T13:46:11.214Z,78.80
2017-09-14T13:48:39.313Z,79.40
2017-09-14T13:51:07.999Z,79.00
2017-09-14T13:53:36.098Z,77.90
2017-09-14T13:56:04.952Z,79.00
2017-09-14T13:58:33.032Z,78.20
2017-09-14T14:01:02.184Z,79.10
2017-09-14T14:03:30.339Z,79.50
2017-09-14T14:05:59.217Z,77.90
2017-09-14T14:08:28.293Z,79.00
2017-09-14T14:10:56.615Z,79.10
2017-09-14T14:13:24.885Z,82.60
2017-09-14T14:15:52.993Z,82.50
2017-09-14T14:18:21.297Z,82.70
2017-09-14T14:20:49.468Z,83.00
2017-09-14T14:23:17.575Z,81.50
2017-09-14T14:25:45.657Z,81.90
2017-09-14T14:28:13.755Z,80.40
2017-09-14T14:30:41.856Z,80.20
2017-09-14T14:33:09.937Z,81.70
2017-09-14T14:35:38.004Z,83.20
2017-09-14T14:38:06.144Z,84.50
2017-09-14T14:40:34.253Z,85.00
2017-09-14T14:43:03.164Z,88.20
2017-09-14T14:45:31.326Z,87.70
2017-09-14T14:47:59.468Z,87.00
2017-09-14T14:50:27.608Z,88.10
2017-09-14T14:52:57.840Z,90.20
2017-09-14T14:55:26.013Z,90.50
2017-09-14T14:57:55.384Z,90.60
2017-09-14T15:00:24.267Z,91.90
2017-09-14T15:02:53.320Z,92.30
2017-09-14T15:05:23.226Z,92.20
2017-09-14T15:07:54.398Z,92.10
2017-09-14T15:10:22.564Z,92.30
2017-09-14T15:12:50.773Z,93.30
2017-09-14T15:15:19.850Z,93.50
2017-09-14T15:17:48.646Z,93.50
2017-09-14T15:20:17.990Z,93.20
2017-09-14T15:22:51.832Z,93.30
2017-09-14T15:25:20.611Z,93.50
2017-09-14T15:27:48.823Z,93.40
2017-09-14T15:30:18.730Z,94.10
2017-09-14T15:32:46.924Z,94.10
2017-09-14T15:35:15.139Z,94.10
2017-09-14T15:37:49.745Z,94.30
2017-09-14T15:40:23.363Z,94.30
2017-09-14T15:42:57.104Z,94.20
2017-09-14T15:45:31.829Z,94.20
2017-09-14T15:47:59.987Z,94.20
2017-09-14T15:50:34.924Z,93.90
2017-09-14T15:53:05.168Z,94.40
2017-09-14T15:55:33.306Z,94.50
2017-09-14T15:58:01.637Z,94.40
2017-09-14T16:00:30.554Z,94.70
2017-09-14T16:02:58.720Z,94.60
2017-09-14T16:05:26.915Z,94.80
2017-09-14T16:07:55.712Z,94.70
2017-09-14T16:10:23.871Z,94.50
2017-09-14T16:12:52.112Z,94.40
2017-09-14T16:15:22.075Z,94.50
2017-09-14T16:17:51.759Z,94.50
2017-09-14T16:20:20.872Z,94.50
2017-09-14T16:22:50.144Z,95.00
2017-09-14T16:25:18.566Z,94.80
2017-09-14T16:27:47.968Z,95.10
2017-09-14T16:30:16.134Z,94.80
2017-09-14T16:32:44.288Z,95.30
2017-09-14T16:35:12.560Z,95.10
2017-09-14T16:37:40.744Z,95.10
2017-09-14T16:40:09.853Z,95.40
2017-09-14T16:42:38.083Z,95.30
2017-09-14T16:45:07.227Z,95.50
2017-09-14T16:47:35.357Z,95.30
2017-09-14T16:50:07.222Z,95.80
2017-09-14T16:52:35.417Z,95.80
2017-09-14T16:55:03.753Z,95.90
2017-09-14T16:57:34.084Z,95.90
2017-09-14T17:00:02.261Z,95.90
2017-09-14T17:02:32.725Z,96.10
2017-09-14T17:05:02.345Z,95.90
2017-09-14T17:07:31.994Z,95.90
2017-09-14T17:10:00.431Z,96.00
2017-09-14T17:12:28.582Z,96.30
2017-09-14T17:14:56.793Z,96.20
2017-09-14T17:17:25.724Z,96.20
2017-09-14T17:19:53.944Z,96.20
2017-09-14T17:22:23.621Z,96.20
2017-09-14T17:24:52.150Z,96.10
2017-09-14T17:27:24.181Z,96.00
2017-09-14T17:29:53.286Z,96.70
2017-09-14T17:32:24.226Z,96.30
2017-09-14T17:34:52.539Z,96.30
2017-09-14T17:37:20.692Z,96.60
2017-09-14T17:39:49.977Z,96.50
2017-09-14T17:42:19.056Z,96.50
2017-09-14T17:44:53.477Z,96.40
2017-09-14T17:47:22.346Z,96.50
2017-09-14T17:49:54.991Z,96.40
2017-09-14T17:52:23.154Z,96.30
2017-09-14T17:54:51.264Z,96.40
2017-09-14T17:57:19.475Z,96.40
2017-09-14T17:59:47.606Z,96.40
2017-09-14T18:02:20.230Z,96.40
2017-09-14T18:04:48.479Z,96.40
2017-09-14T18:07:18.675Z,96.60
2017-09-14T18:09:47.866Z,96.60
2017-09-14T18:12:17.045Z,96.40
2017-09-14T18:14:45.377Z,96.40
2017-09-14T18:17:15.227Z,96.50
2017-09-14T18:19:43.377Z,96.40
2017-09-14T18:22:11.728Z,96.70
2017-09-14T18:24:39.946Z,96.70
2017-09-14T18:27:08.096Z,96.70
2017-09-14T18:29:37.043Z,96.80
2017-09-14T18:32:05.228Z,96.80
2017-09-14T18:34:34.519Z,96.70
2017-09-14T18:37:03.646Z,96.80
2017-09-14T18:39:31.771Z,96.80
2017-09-14T18:41:59.906Z,96.80
2017-09-14T18:44:29.006Z,97.00
2017-09-14T18:47:00.056Z,96.80
2017-09-14T18:49:33.189Z,96.80
2017-09-14T18:52:02.344Z,96.90
2017-09-14T18:54:30.488Z,96.90
2017-09-14T18:56:58.988Z,96.90
2017-09-14T18:59:28.734Z,96.90
2017-09-14T19:01:58.016Z,96.90
2017-09-14T19:04:28.335Z,96.80
2017-09-14T19:06:56.517Z,96.90
2017-09-14T19:09:25.646Z,96.80
2017-09-14T19:11:53.955Z,97.00
2017-09-14T19:14:22.081Z,97.00
2017-09-14T19:16:50.528Z,97.00
2017-09-14T19:19:19.780Z,96.90
2017-09-14T19:21:49.165Z,96.90
2017-09-14T19:24:17.396Z,97.00
2017-09-14T19:26:46.328Z,96.80
2017-09-14T19:29:15.571Z,96.90
2017-09-14T19:31:46.433Z,97.00
2017-09-14T19:34:18.097Z,97.00
2017-09-14T19:36:56.349Z,96.90
2017-09-14T19:39:25.550Z,96.90
2017-09-14T19:41:55.362Z,97.20
2017-09-14T19:44:23.649Z,97.00
2017-09-14T19:46:52.529Z,96.90
2017-09-14T19:49:25.220Z,96.90
2017-09-14T19:51:54.556Z,96.90
2017-09-14T19:54:23.492Z,96.90
2017-09-14T19:56:51.612Z,96.90
2017-09-14T19:59:20.524Z,96.80
2017-09-14T20:01:48.710Z,96.90
2017-09-14T20:04:16.886Z,97.10
2017-09-14T20:06:45.089Z,96.90
2017-09-14T20:09:13.254Z,97.00
2017-09-14T20:11:41.413Z,96.90
2017-09-14T20:14:11.353Z,97.00
2017-09-14T20:16:39.521Z,96.90
2017-09-14T20:19:08.728Z,97.00
2017-09-14T20:21:37.242Z,97.10
2017-09-14T20:24:06.748Z,97.20
2017-09-14T20:26:36.060Z,97.10
2017-09-14T20:29:04.984Z,97.10
2017-09-14T20:31:33.130Z,97.10
2017-09-14T20:34:01.292Z,97.10
2017-09-14T20:36:30.208Z,97.00
2017-09-14T20:38:58.359Z,97.00
2017-09-14T20:41:27.277Z,97.10
2017-09-14T20:43:56.397Z,97.20
2017-09-14T20:46:24.564Z,97.10
2017-09-14T20:48:55.803Z,96.90
2017-09-14T20:51:24.900Z,97.20
2017-09-14T20:53:53.099Z,97.10
2017-09-14T20:56:23.353Z,97.00
2017-09-14T20:58:52.265Z,96.90
2017-09-14T21:01:21.693Z,96.90
2017-09-14T21:03:50.164Z,97.00
2017-09-14T21:06:18.277Z,97.00
2017-09-14T21:08:46.486Z,96.90
2017-09-14T21:11:14.645Z,96.80
2017-09-14T21:13:44.573Z,96.70
2017-09-14T21:16:17.263Z,96.60
2017-09-14T21:18:46.599Z,96.80
2017-09-14T21:21:16.658Z,96.90
2017-09-14T21:23:44.788Z,96.80
2017-09-14T21:26:13.550Z,96.70
2017-09-14T21:28:42.087Z,96.80
2017-09-14T21:31:10.321Z,96.50
2017-09-14T21:33:39.257Z,96.70
2017-09-14T21:36:10.778Z,96.70
2017-09-14T21:38:38.926Z,96.70
2017-09-14T21:41:09.295Z,96.60
2017-09-14T21:43:38.410Z,96.70
2017-09-14T21:46:08.309Z,96.50
2017-09-14T21:48:36.837Z,96.50
2017-09-14T21:51:04.960Z,96.70
2017-09-14T21:53:34.018Z,96.70
2017-09-14T21:56:03.257Z,96.70
2017-09-14T21:58:32.345Z,96.50
2017-09-14T22:01:00.549Z,96.50
2017-09-14T22:03:30.747Z,96.50
2017-09-14T22:05:58.928Z,96.50
2017-09-14T22:08:27.099Z,96.50
2017-09-14T22:10:56.050Z,96.60
2017-09-14T22:13:25.309Z,96.70
2017-09-14T22:15:53.477Z,96.60
2017-09-14T22:18:21.713Z,96.50
2017-09-14T22:20:50.029Z,96.80
2017-09-14T22:23:18.938Z,96.70
2017-09-14T22:25:47.088Z,96.70
2017-09-14T22:28:15.233Z,96.60
2017-09-14T22:30:43.380Z,96.70
2017-09-14T22:33:13.570Z,96.70
2017-09-14T22:35:42.858Z,96.90
2017-09-14T22:38:11.054Z,97.00
2017-09-14T22:40:41.956Z,96.70
2017-09-14T22:43:10.102Z,96.70
2017-09-14T22:45:38.402Z,96.90
2017-09-14T22:48:06.589Z,96.80
2017-09-14T22:50:37.015Z,97.00
2017-09-14T22:53:05.145Z,96.80
2017-09-14T22:55:36.574Z,97.10
2017-09-14T22:58:05.439Z,97.10
2017-09-14T23:00:33.584Z,96.80
2017-09-14T23:03:01.681Z,97.10
2017-09-14T23:05:30.044Z,96.90
2017-09-14T23:07:58.412Z,97.00
2017-09-14T23:10:26.504Z,96.90
2017-09-14T23:12:54.624Z,97.40
2017-09-14T23:15:24.831Z,97.00
2017-09-14T23:17:54.025Z,97.00
2017-09-14T23:20:23.089Z,96.80
2017-09-14T23:22:51.704Z,96.80
2017-09-14T23:25:19.828Z,96.90
2017-09-14T23:27:47.966Z,97.00
2017-09-14T23:30:16.076Z,97.00
2017-09-14T23:32:44.195Z,97.00
2017-09-14T23:35:13.172Z,97.00
2017-09-14T23:37:41.528Z,97.00
2017-09-14T23:40:09.628Z,96.90
2017-09-14T23:42:37.743Z,97.00
2017-09-14T23:45:05.852Z,96.90
2017-09-14T23:47:33.963Z,96.90
2017-09-14T23:50:03.908Z,96.70
2017-09-14T23:52:31.999Z,96.70
2017-09-14T23:55:00.104Z,96.90
2017-09-14T23:57:28.225Z,96.70
2017-09-14T23:59:56.320Z,96.90
